sensor_id;sensor_type;location;lat;lon;timestamp;P1;durP1;ratioP1;P2;durP2;ratioP2
84293;SDS011;74463;51.182;3.210;2024-02-28T00:00:59;16.98;;;10.85;;
84293;SDS011;74463;51.182;3.210;2024-02-28T00:03:26;20.17;;;10.80;;
84293;SDS011;74463;51.182;3.210;2024-02-28T00:05:54;18.77;;;10.75;;
84293;SDS011;74463;51.182;3.210;2024-02-28T00:08:21;20.27;;;11.20;;
84293;SDS011;74463;51.182;3.210;2024-02-28T00:10:50;18.63;;;12.00;;
84293;SDS011;74463;51.182;3.210;2024-02-28T00:13:17;20.83;;;12.02;;
84293;SDS011;74463;51.182;3.210;2024-02-28T00:15:45;22.63;;;13.13;;
84293;SDS011;74463;51.182;3.210;2024-02-28T00:18:13;30.17;;;13.20;;
84293;SDS011;74463;51.182;3.210;2024-02-28T00:20:40;24.83;;;12.52;;
84293;SDS011;74463;51.182;3.210;2024-02-28T00:23:08;24.95;;;13.45;;
84293;SDS011;74463;51.182;3.210;2024-02-28T00:25:35;27.15;;;14.65;;
84293;SDS011;74463;51.182;3.210;2024-02-28T00:28:04;26.02;;;13.70;;
84293;SDS011;74463;51.182;3.210;2024-02-28T00:30:31;22.38;;;12.77;;
84293;SDS011;74463;51.182;3.210;2024-02-28T00:32:59;22.10;;;12.30;;
84293;SDS011;74463;51.182;3.210;2024-02-28T00:35:27;20.52;;;12.27;;
84293;SDS011;74463;51.182;3.210;2024-02-28T00:37:54;21.13;;;12.00;;
84293;SDS011;74463;51.182;3.210;2024-02-28T00:40:22;20.55;;;10.98;;
84293;SDS011;74463;51.182;3.210;2024-02-28T00:42:50;17.10;;;10.55;;
84293;SDS011;74463;51.182;3.210;2024-02-28T00:45:19;17.67;;;10.05;;
84293;SDS011;74463;51.182;3.210;2024-02-28T00:47:47;16.33;;;9.40;;
84293;SDS011;74463;51.182;3.210;2024-02-28T00:50:14;16.40;;;10.35;;
84293;SDS011;74463;51.182;3.210;2024-02-28T00:52:42;13.85;;;9.75;;
84293;SDS011;74463;51.182;3.210;2024-02-28T00:55:10;18.15;;;10.32;;
84293;SDS011;74463;51.182;3.210;2024-02-28T00:57:37;13.20;;;10.15;;
84293;SDS011;74463;51.182;3.210;2024-02-28T01:00:05;15.73;;;8.90;;
84293;SDS011;74463;51.182;3.210;2024-02-28T01:02:36;15.60;;;9.73;;
84293;SDS011;74463;51.182;3.210;2024-02-28T01:05:03;15.70;;;10.23;;
84293;SDS011;74463;51.182;3.210;2024-02-28T01:07:31;14.90;;;9.98;;
84293;SDS011;74463;51.182;3.210;2024-02-28T01:09:58;19.30;;;10.45;;
84293;SDS011;74463;51.182;3.210;2024-02-28T01:12:25;17.13;;;9.30;;
84293;SDS011;74463;51.182;3.210;2024-02-28T01:14:53;13.65;;;8.57;;
84293;SDS011;74463;51.182;3.210;2024-02-28T01:17:20;16.15;;;9.30;;
84293;SDS011;74463;51.182;3.210;2024-02-28T01:19:49;14.90;;;8.52;;
84293;SDS011;74463;51.182;3.210;2024-02-28T01:22:17;21.83;;;8.52;;
84293;SDS011;74463;51.182;3.210;2024-02-28T01:24:44;18.10;;;7.97;;
84293;SDS011;74463;51.182;3.210;2024-02-28T01:27:12;13.43;;;8.27;;
84293;SDS011;74463;51.182;3.210;2024-02-28T01:29:39;14.30;;;7.45;;
84293;SDS011;74463;51.182;3.210;2024-02-28T01:32:07;10.55;;;7.05;;
84293;SDS011;74463;51.182;3.210;2024-02-28T01:34:34;13.65;;;6.40;;
84293;SDS011;74463;51.182;3.210;2024-02-28T01:37:03;14.45;;;6.53;;
84293;SDS011;74463;51.182;3.210;2024-02-28T01:39:30;12.40;;;6.47;;
84293;SDS011;74463;51.182;3.210;2024-02-28T01:41:58;18.25;;;6.57;;
84293;SDS011;74463;51.182;3.210;2024-02-28T01:44:25;18.27;;;7.07;;
84293;SDS011;74463;51.182;3.210;2024-02-28T01:46:53;14.18;;;6.57;;
84293;SDS011;74463;51.182;3.210;2024-02-28T01:49:22;14.77;;;6.88;;
84293;SDS011;74463;51.182;3.210;2024-02-28T01:51:50;14.10;;;6.90;;
84293;SDS011;74463;51.182;3.210;2024-02-28T01:54:20;16.13;;;7.47;;
84293;SDS011;74463;51.182;3.210;2024-02-28T01:56:48;12.32;;;6.55;;
84293;SDS011;74463;51.182;3.210;2024-02-28T01:59:16;11.73;;;7.30;;
84293;SDS011;74463;51.182;3.210;2024-02-28T02:01:45;16.77;;;7.10;;
84293;SDS011;74463;51.182;3.210;2024-02-28T02:04:13;12.20;;;6.50;;
84293;SDS011;74463;51.182;3.210;2024-02-28T02:06:42;14.10;;;6.57;;
84293;SDS011;74463;51.182;3.210;2024-02-28T02:09:12;13.48;;;7.07;;
84293;SDS011;74463;51.182;3.210;2024-02-28T02:11:41;9.80;;;6.80;;
84293;SDS011;74463;51.182;3.210;2024-02-28T02:14:08;10.88;;;6.63;;
84293;SDS011;74463;51.182;3.210;2024-02-28T02:16:36;13.50;;;6.35;;
84293;SDS011;74463;51.182;3.210;2024-02-28T02:19:04;9.88;;;6.30;;
84293;SDS011;74463;51.182;3.210;2024-02-28T02:21:41;9.60;;;6.63;;
84293;SDS011;74463;51.182;3.210;2024-02-28T02:24:17;15.18;;;5.93;;
84293;SDS011;74463;51.182;3.210;2024-02-28T02:26:44;12.20;;;6.68;;
84293;SDS011;74463;51.182;3.210;2024-02-28T02:29:12;14.85;;;6.38;;
84293;SDS011;74463;51.182;3.210;2024-02-28T02:31:39;12.57;;;5.47;;
84293;SDS011;74463;51.182;3.210;2024-02-28T02:34:07;13.05;;;6.20;;
84293;SDS011;74463;51.182;3.210;2024-02-28T02:36:34;10.68;;;5.95;;
84293;SDS011;74463;51.182;3.210;2024-02-28T02:39:02;16.65;;;6.35;;
84293;SDS011;74463;51.182;3.210;2024-02-28T02:41:31;17.17;;;6.00;;
84293;SDS011;74463;51.182;3.210;2024-02-28T02:43:58;14.93;;;6.85;;
84293;SDS011;74463;51.182;3.210;2024-02-28T02:46:26;13.82;;;6.55;;
84293;SDS011;74463;51.182;3.210;2024-02-28T02:48:53;13.60;;;7.10;;
84293;SDS011;74463;51.182;3.210;2024-02-28T02:51:21;14.45;;;6.63;;
84293;SDS011;74463;51.182;3.210;2024-02-28T02:53:49;12.30;;;6.38;;
84293;SDS011;74463;51.182;3.210;2024-02-28T02:56:17;10.48;;;5.88;;
84293;SDS011;74463;51.182;3.210;2024-02-28T02:58:45;14.05;;;6.35;;
84293;SDS011;74463;51.182;3.210;2024-02-28T03:01:13;11.25;;;6.43;;
84293;SDS011;74463;51.182;3.210;2024-02-28T03:03:40;15.77;;;6.60;;
84293;SDS011;74463;51.182;3.210;2024-02-28T03:06:08;13.32;;;6.13;;
84293;SDS011;74463;51.182;3.210;2024-02-28T03:08:36;12.63;;;6.20;;
84293;SDS011;74463;51.182;3.210;2024-02-28T03:11:03;9.88;;;7.32;;
84293;SDS011;74463;51.182;3.210;2024-02-28T03:13:33;12.82;;;6.20;;
84293;SDS011;74463;51.182;3.210;2024-02-28T03:16:04;11.63;;;5.97;;
84293;SDS011;74463;51.182;3.210;2024-02-28T03:18:33;14.88;;;6.25;;
84293;SDS011;74463;51.182;3.210;2024-02-28T03:21:00;11.02;;;5.90;;
84293;SDS011;74463;51.182;3.210;2024-02-28T03:23:28;15.50;;;6.78;;
84293;SDS011;74463;51.182;3.210;2024-02-28T03:25:56;12.10;;;6.05;;
84293;SDS011;74463;51.182;3.210;2024-02-28T03:28:23;11.40;;;6.40;;
84293;SDS011;74463;51.182;3.210;2024-02-28T03:30:50;9.43;;;5.40;;
84293;SDS011;74463;51.182;3.210;2024-02-28T03:33:19;17.92;;;6.50;;
84293;SDS011;74463;51.182;3.210;2024-02-28T03:35:47;13.45;;;6.05;;
84293;SDS011;74463;51.182;3.210;2024-02-28T03:38:14;16.02;;;6.63;;
84293;SDS011;74463;51.182;3.210;2024-02-28T03:40:42;10.25;;;5.63;;
84293;SDS011;74463;51.182;3.210;2024-02-28T03:43:09;10.85;;;6.15;;
84293;SDS011;74463;51.182;3.210;2024-02-28T03:45:38;10.90;;;6.07;;
84293;SDS011;74463;51.182;3.210;2024-02-28T03:48:05;13.65;;;6.32;;
84293;SDS011;74463;51.182;3.210;2024-02-28T03:50:35;14.63;;;6.53;;
84293;SDS011;74463;51.182;3.210;2024-02-28T03:55:30;11.63;;;6.70;;
84293;SDS011;74463;51.182;3.210;2024-02-28T03:57:57;15.60;;;7.20;;
84293;SDS011;74463;51.182;3.210;2024-02-28T04:00:25;12.35;;;6.95;;
84293;SDS011;74463;51.182;3.210;2024-02-28T04:02:52;14.02;;;7.30;;
84293;SDS011;74463;51.182;3.210;2024-02-28T04:05:20;10.00;;;6.40;;
84293;SDS011;74463;51.182;3.210;2024-02-28T04:07:49;14.65;;;7.00;;
84293;SDS011;74463;51.182;3.210;2024-02-28T04:10:16;13.68;;;6.35;;
84293;SDS011;74463;51.182;3.210;2024-02-28T04:12:44;12.82;;;6.45;;
84293;SDS011;74463;51.182;3.210;2024-02-28T04:15:11;18.60;;;6.97;;
84293;SDS011;74463;51.182;3.210;2024-02-28T04:17:39;13.93;;;7.47;;
84293;SDS011;74463;51.182;3.210;2024-02-28T04:20:08;17.27;;;7.28;;
84293;SDS011;74463;51.182;3.210;2024-02-28T04:25:05;15.43;;;7.13;;
84293;SDS011;74463;51.182;3.210;2024-02-28T04:27:33;12.35;;;7.53;;
84293;SDS011;74463;51.182;3.210;2024-02-28T04:30:00;12.38;;;7.55;;
84293;SDS011;74463;51.182;3.210;2024-02-28T04:32:28;15.75;;;7.63;;
84293;SDS011;74463;51.182;3.210;2024-02-28T04:34:55;17.23;;;7.70;;
84293;SDS011;74463;51.182;3.210;2024-02-28T04:37:23;12.93;;;7.10;;
84293;SDS011;74463;51.182;3.210;2024-02-28T04:39:50;18.67;;;8.60;;
84293;SDS011;74463;51.182;3.210;2024-02-28T04:42:19;16.83;;;8.35;;
84293;SDS011;74463;51.182;3.210;2024-02-28T04:47:14;13.13;;;7.53;;
84293;SDS011;74463;51.182;3.210;2024-02-28T04:49:41;17.08;;;9.07;;
84293;SDS011;74463;51.182;3.210;2024-02-28T04:52:09;13.43;;;8.02;;
84293;SDS011;74463;51.182;3.210;2024-02-28T04:54:36;14.32;;;7.85;;
84293;SDS011;74463;51.182;3.210;2024-02-28T04:57:06;12.15;;;7.25;;
84293;SDS011;74463;51.182;3.210;2024-02-28T04:59:35;12.48;;;7.32;;
84293;SDS011;74463;51.182;3.210;2024-02-28T05:02:02;13.15;;;7.45;;
84293;SDS011;74463;51.182;3.210;2024-02-28T05:04:30;17.80;;;8.27;;
84293;SDS011;74463;51.182;3.210;2024-02-28T05:06:58;14.45;;;7.95;;
84293;SDS011;74463;51.182;3.210;2024-02-28T05:09:25;15.02;;;7.63;;
84293;SDS011;74463;51.182;3.210;2024-02-28T05:11:52;21.15;;;9.25;;
84293;SDS011;74463;51.182;3.210;2024-02-28T05:14:20;17.65;;;8.30;;
84293;SDS011;74463;51.182;3.210;2024-02-28T05:16:49;20.73;;;8.70;;
84293;SDS011;74463;51.182;3.210;2024-02-28T05:19:16;16.27;;;8.23;;
84293;SDS011;74463;51.182;3.210;2024-02-28T05:21:44;14.35;;;8.40;;
84293;SDS011;74463;51.182;3.210;2024-02-28T05:24:13;19.70;;;8.68;;
84293;SDS011;74463;51.182;3.210;2024-02-28T05:26:41;14.10;;;7.72;;
84293;SDS011;74463;51.182;3.210;2024-02-28T05:29:08;17.85;;;8.55;;
84293;SDS011;74463;51.182;3.210;2024-02-28T05:31:36;20.40;;;9.57;;
84293;SDS011;74463;51.182;3.210;2024-02-28T05:34:05;23.38;;;8.80;;
84293;SDS011;74463;51.182;3.210;2024-02-28T05:36:32;18.27;;;9.18;;
84293;SDS011;74463;51.182;3.210;2024-02-28T05:39:00;18.60;;;8.63;;
84293;SDS011;74463;51.182;3.210;2024-02-28T05:41:29;16.48;;;8.18;;
84293;SDS011;74463;51.182;3.210;2024-02-28T05:43:57;19.42;;;9.48;;
84293;SDS011;74463;51.182;3.210;2024-02-28T05:46:24;17.60;;;9.02;;
84293;SDS011;74463;51.182;3.210;2024-02-28T05:48:52;19.55;;;9.02;;
84293;SDS011;74463;51.182;3.210;2024-02-28T05:51:21;17.27;;;9.13;;
84293;SDS011;74463;51.182;3.210;2024-02-28T05:56:16;20.02;;;9.13;;
84293;SDS011;74463;51.182;3.210;2024-02-28T05:58:45;15.35;;;8.85;;
84293;SDS011;74463;51.182;3.210;2024-02-28T06:01:15;22.92;;;9.52;;
84293;SDS011;74463;51.182;3.210;2024-02-28T06:03:45;18.42;;;9.10;;
84293;SDS011;74463;51.182;3.210;2024-02-28T06:06:16;20.45;;;9.95;;
84293;SDS011;74463;51.182;3.210;2024-02-28T06:08:44;21.48;;;9.60;;
84293;SDS011;74463;51.182;3.210;2024-02-28T06:11:12;20.15;;;9.20;;
84293;SDS011;74463;51.182;3.210;2024-02-28T06:13:40;19.65;;;9.63;;
84293;SDS011;74463;51.182;3.210;2024-02-28T06:16:07;22.37;;;10.40;;
84293;SDS011;74463;51.182;3.210;2024-02-28T06:18:40;24.17;;;10.07;;
84293;SDS011;74463;51.182;3.210;2024-02-28T06:21:07;23.20;;;10.30;;
84293;SDS011;74463;51.182;3.210;2024-02-28T06:23:34;23.58;;;10.15;;
84293;SDS011;74463;51.182;3.210;2024-02-28T06:26:03;27.33;;;10.57;;
84293;SDS011;74463;51.182;3.210;2024-02-28T06:28:31;17.42;;;10.27;;
84293;SDS011;74463;51.182;3.210;2024-02-28T06:30:58;21.88;;;9.95;;
84293;SDS011;74463;51.182;3.210;2024-02-28T06:33:25;21.42;;;9.68;;
84293;SDS011;74463;51.182;3.210;2024-02-28T06:35:52;24.65;;;10.18;;
84293;SDS011;74463;51.182;3.210;2024-02-28T06:38:20;22.27;;;10.68;;
84293;SDS011;74463;51.182;3.210;2024-02-28T06:40:47;23.13;;;10.95;;
84293;SDS011;74463;51.182;3.210;2024-02-28T06:43:16;23.33;;;11.57;;
84293;SDS011;74463;51.182;3.210;2024-02-28T06:45:44;18.85;;;10.05;;
84293;SDS011;74463;51.182;3.210;2024-02-28T06:48:12;25.23;;;10.93;;
84293;SDS011;74463;51.182;3.210;2024-02-28T06:50:39;20.17;;;10.20;;
84293;SDS011;74463;51.182;3.210;2024-02-28T06:53:06;20.85;;;10.77;;
84293;SDS011;74463;51.182;3.210;2024-02-28T06:55:34;21.67;;;10.93;;
84293;SDS011;74463;51.182;3.210;2024-02-28T06:58:02;21.38;;;10.63;;
84293;SDS011;74463;51.182;3.210;2024-02-28T07:00:31;26.50;;;11.45;;
84293;SDS011;74463;51.182;3.210;2024-02-28T07:02:58;27.63;;;11.45;;
84293;SDS011;74463;51.182;3.210;2024-02-28T07:05:26;26.70;;;10.57;;
84293;SDS011;74463;51.182;3.210;2024-02-28T07:07:53;21.92;;;11.25;;
84293;SDS011;74463;51.182;3.210;2024-02-28T07:10:21;20.67;;;10.93;;
84293;SDS011;74463;51.182;3.210;2024-02-28T07:12:48;22.67;;;11.15;;
84293;SDS011;74463;51.182;3.210;2024-02-28T07:15:16;18.42;;;10.75;;
84293;SDS011;74463;51.182;3.210;2024-02-28T07:17:47;21.58;;;11.10;;
84293;SDS011;74463;51.182;3.210;2024-02-28T07:20:14;18.23;;;10.75;;
84293;SDS011;74463;51.182;3.210;2024-02-28T07:22:43;18.87;;;10.37;;
84293;SDS011;74463;51.182;3.210;2024-02-28T07:25:11;17.45;;;12.07;;
84293;SDS011;74463;51.182;3.210;2024-02-28T07:27:39;21.95;;;10.50;;
84293;SDS011;74463;51.182;3.210;2024-02-28T07:30:06;17.42;;;9.90;;
84293;SDS011;74463;51.182;3.210;2024-02-28T07:32:34;23.30;;;11.52;;
84293;SDS011;74463;51.182;3.210;2024-02-28T07:35:04;20.73;;;11.15;;
84293;SDS011;74463;51.182;3.210;2024-02-28T07:37:32;23.33;;;12.23;;
84293;SDS011;74463;51.182;3.210;2024-02-28T07:40:00;20.67;;;13.35;;
84293;SDS011;74463;51.182;3.210;2024-02-28T07:42:28;22.42;;;13.60;;
84293;SDS011;74463;51.182;3.210;2024-02-28T07:44:55;26.90;;;14.80;;
84293;SDS011;74463;51.182;3.210;2024-02-28T07:47:23;27.45;;;14.13;;
84293;SDS011;74463;51.182;3.210;2024-02-28T07:49:51;19.98;;;11.27;;
84293;SDS011;74463;51.182;3.210;2024-02-28T07:52:20;21.58;;;10.05;;
84293;SDS011;74463;51.182;3.210;2024-02-28T07:54:48;18.20;;;11.23;;
84293;SDS011;74463;51.182;3.210;2024-02-28T07:57:15;26.55;;;11.25;;
84293;SDS011;74463;51.182;3.210;2024-02-28T07:59:43;18.95;;;10.00;;
84293;SDS011;74463;51.182;3.210;2024-02-28T08:02:10;14.80;;;9.20;;
84293;SDS011;74463;51.182;3.210;2024-02-28T08:04:38;13.15;;;8.20;;
84293;SDS011;74463;51.182;3.210;2024-02-28T08:07:06;18.15;;;8.63;;
84293;SDS011;74463;51.182;3.210;2024-02-28T08:09:35;18.52;;;9.52;;
84293;SDS011;74463;51.182;3.210;2024-02-28T08:12:02;16.85;;;9.38;;
84293;SDS011;74463;51.182;3.210;2024-02-28T08:14:30;20.63;;;9.30;;
84293;SDS011;74463;51.182;3.210;2024-02-28T08:16:57;17.40;;;9.02;;
84293;SDS011;74463;51.182;3.210;2024-02-28T08:19:25;19.15;;;8.95;;
84293;SDS011;74463;51.182;3.210;2024-02-28T08:21:52;22.30;;;8.45;;
84293;SDS011;74463;51.182;3.210;2024-02-28T08:24:20;13.07;;;7.75;;
84293;SDS011;74463;51.182;3.210;2024-02-28T08:26:49;14.32;;;7.90;;
84293;SDS011;74463;51.182;3.210;2024-02-28T08:29:16;16.02;;;7.00;;
84293;SDS011;74463;51.182;3.210;2024-02-28T08:31:44;11.40;;;7.00;;
84293;SDS011;74463;51.182;3.210;2024-02-28T08:34:11;16.20;;;7.70;;
84293;SDS011;74463;51.182;3.210;2024-02-28T08:36:39;12.85;;;7.72;;
84293;SDS011;74463;51.182;3.210;2024-02-28T08:39:06;16.77;;;7.53;;
84293;SDS011;74463;51.182;3.210;2024-02-28T08:41:34;12.63;;;7.55;;
84293;SDS011;74463;51.182;3.210;2024-02-28T08:44:03;16.65;;;7.65;;
84293;SDS011;74463;51.182;3.210;2024-02-28T08:48:58;12.98;;;6.65;;
84293;SDS011;74463;51.182;3.210;2024-02-28T08:51:25;14.07;;;7.00;;
84293;SDS011;74463;51.182;3.210;2024-02-28T08:53:53;13.13;;;6.75;;
84293;SDS011;74463;51.182;3.210;2024-02-28T08:56:21;15.63;;;7.18;;
84293;SDS011;74463;51.182;3.210;2024-02-28T08:58:48;12.48;;;6.95;;
84293;SDS011;74463;51.182;3.210;2024-02-28T09:01:17;14.32;;;7.20;;
84293;SDS011;74463;51.182;3.210;2024-02-28T09:06:11;16.27;;;8.32;;
84293;SDS011;74463;51.182;3.210;2024-02-28T09:08:39;14.63;;;7.90;;
84293;SDS011;74463;51.182;3.210;2024-02-28T09:11:06;14.38;;;8.13;;
84293;SDS011;74463;51.182;3.210;2024-02-28T09:13:34;13.45;;;7.47;;
84293;SDS011;74463;51.182;3.210;2024-02-28T09:16:02;14.10;;;8.13;;
84293;SDS011;74463;51.182;3.210;2024-02-28T09:18:31;13.18;;;7.93;;
84293;SDS011;74463;51.182;3.210;2024-02-28T09:20:58;14.98;;;7.55;;
84293;SDS011;74463;51.182;3.210;2024-02-28T09:23:26;15.50;;;9.25;;
84293;SDS011;74463;51.182;3.210;2024-02-28T09:25:53;12.18;;;8.50;;
84293;SDS011;74463;51.182;3.210;2024-02-28T09:28:21;13.20;;;9.38;;
84293;SDS011;74463;51.182;3.210;2024-02-28T09:30:48;14.68;;;8.02;;
84293;SDS011;74463;51.182;3.210;2024-02-28T09:33:17;14.85;;;8.63;;
84293;SDS011;74463;51.182;3.210;2024-02-28T09:35:46;13.93;;;8.33;;
84293;SDS011;74463;51.182;3.210;2024-02-28T09:38:14;14.85;;;8.48;;
84293;SDS011;74463;51.182;3.210;2024-02-28T09:40:41;13.75;;;8.43;;
84293;SDS011;74463;51.182;3.210;2024-02-28T09:43:15;12.98;;;7.68;;
84293;SDS011;74463;51.182;3.210;2024-02-28T09:45:52;13.50;;;7.75;;
84293;SDS011;74463;51.182;3.210;2024-02-28T09:48:23;13.65;;;9.27;;
84293;SDS011;74463;51.182;3.210;2024-02-28T09:50:53;15.60;;;9.32;;
84293;SDS011;74463;51.182;3.210;2024-02-28T09:53:21;14.43;;;8.35;;
84293;SDS011;74463;51.182;3.210;2024-02-28T09:55:49;13.30;;;8.57;;
84293;SDS011;74463;51.182;3.210;2024-02-28T09:58:18;18.20;;;9.45;;
84293;SDS011;74463;51.182;3.210;2024-02-28T10:00:46;14.18;;;8.68;;
84293;SDS011;74463;51.182;3.210;2024-02-28T10:03:16;17.05;;;9.88;;
84293;SDS011;74463;51.182;3.210;2024-02-28T10:05:45;19.67;;;12.45;;
84293;SDS011;74463;51.182;3.210;2024-02-28T10:08:14;22.48;;;10.05;;
84293;SDS011;74463;51.182;3.210;2024-02-28T10:10:45;14.27;;;8.43;;
84293;SDS011;74463;51.182;3.210;2024-02-28T10:13:13;17.33;;;9.88;;
84293;SDS011;74463;51.182;3.210;2024-02-28T10:15:42;17.48;;;10.20;;
84293;SDS011;74463;51.182;3.210;2024-02-28T10:18:09;16.40;;;10.48;;
84293;SDS011;74463;51.182;3.210;2024-02-28T10:20:37;13.68;;;9.48;;
84293;SDS011;74463;51.182;3.210;2024-02-28T10:23:05;15.77;;;9.63;;
84293;SDS011;74463;51.182;3.210;2024-02-28T10:25:41;16.40;;;11.20;;
84293;SDS011;74463;51.182;3.210;2024-02-28T10:28:09;17.10;;;9.88;;
84293;SDS011;74463;51.182;3.210;2024-02-28T10:30:38;14.73;;;9.35;;
84293;SDS011;74463;51.182;3.210;2024-02-28T10:33:10;19.20;;;10.80;;
84293;SDS011;74463;51.182;3.210;2024-02-28T10:35:39;16.85;;;9.98;;
84293;SDS011;74463;51.182;3.210;2024-02-28T10:38:08;15.15;;;10.13;;
84293;SDS011;74463;51.182;3.210;2024-02-28T10:40:39;18.67;;;12.15;;
84293;SDS011;74463;51.182;3.210;2024-02-28T10:43:07;18.02;;;12.23;;
84293;SDS011;74463;51.182;3.210;2024-02-28T10:45:36;22.35;;;9.70;;
84293;SDS011;74463;51.182;3.210;2024-02-28T10:48:04;20.67;;;11.03;;
84293;SDS011;74463;51.182;3.210;2024-02-28T10:50:35;18.02;;;10.43;;
84293;SDS011;74463;51.182;3.210;2024-02-28T10:53:02;18.65;;;10.88;;
84293;SDS011;74463;51.182;3.210;2024-02-28T10:55:32;16.77;;;10.73;;
84293;SDS011;74463;51.182;3.210;2024-02-28T10:58:03;16.70;;;9.73;;
84293;SDS011;74463;51.182;3.210;2024-02-28T11:00:35;18.92;;;9.90;;
84293;SDS011;74463;51.182;3.210;2024-02-28T11:03:04;16.48;;;9.32;;
84293;SDS011;74463;51.182;3.210;2024-02-28T11:05:35;20.67;;;10.48;;
84293;SDS011;74463;51.182;3.210;2024-02-28T11:08:04;20.13;;;9.93;;
84293;SDS011;74463;51.182;3.210;2024-02-28T11:10:34;16.77;;;9.77;;
84293;SDS011;74463;51.182;3.210;2024-02-28T11:13:03;17.92;;;10.27;;
84293;SDS011;74463;51.182;3.210;2024-02-28T11:18:06;15.85;;;9.95;;
84293;SDS011;74463;51.182;3.210;2024-02-28T11:20:34;16.48;;;11.52;;
84293;SDS011;74463;51.182;3.210;2024-02-28T11:23:02;17.02;;;10.68;;
84293;SDS011;74463;51.182;3.210;2024-02-28T11:25:32;17.17;;;10.88;;
84293;SDS011;74463;51.182;3.210;2024-02-28T11:27:59;19.05;;;9.95;;
84293;SDS011;74463;51.182;3.210;2024-02-28T11:30:29;18.40;;;10.85;;
84293;SDS011;74463;51.182;3.210;2024-02-28T11:32:56;18.20;;;10.00;;
84293;SDS011;74463;51.182;3.210;2024-02-28T11:35:24;16.13;;;9.88;;
84293;SDS011;74463;51.182;3.210;2024-02-28T11:37:54;15.32;;;10.35;;
84293;SDS011;74463;51.182;3.210;2024-02-28T11:40:22;17.63;;;10.77;;
84293;SDS011;74463;51.182;3.210;2024-02-28T11:42:51;18.33;;;11.10;;
84293;SDS011;74463;51.182;3.210;2024-02-28T11:45:19;22.08;;;10.40;;
84293;SDS011;74463;51.182;3.210;2024-02-28T11:47:47;15.25;;;9.45;;
84293;SDS011;74463;51.182;3.210;2024-02-28T11:50:15;17.95;;;9.30;;
84293;SDS011;74463;51.182;3.210;2024-02-28T11:52:44;20.00;;;10.57;;
84293;SDS011;74463;51.182;3.210;2024-02-28T11:55:11;15.13;;;9.82;;
84293;SDS011;74463;51.182;3.210;2024-02-28T11:57:39;16.23;;;9.88;;
84293;SDS011;74463;51.182;3.210;2024-02-28T12:00:07;15.25;;;8.18;;
84293;SDS011;74463;51.182;3.210;2024-02-28T12:02:38;17.92;;;9.98;;
84293;SDS011;74463;51.182;3.210;2024-02-28T12:05:07;14.63;;;9.07;;
84293;SDS011;74463;51.182;3.210;2024-02-28T12:07:35;21.75;;;9.43;;
84293;SDS011;74463;51.182;3.210;2024-02-28T12:10:04;19.58;;;9.95;;
84293;SDS011;74463;51.182;3.210;2024-02-28T12:12:33;17.17;;;10.32;;
84293;SDS011;74463;51.182;3.210;2024-02-28T12:15:01;21.75;;;10.75;;
84293;SDS011;74463;51.182;3.210;2024-02-28T12:17:30;14.07;;;8.88;;
84293;SDS011;74463;51.182;3.210;2024-02-28T12:19:58;13.63;;;8.52;;
84293;SDS011;74463;51.182;3.210;2024-02-28T12:22:27;15.32;;;8.63;;
84293;SDS011;74463;51.182;3.210;2024-02-28T12:24:54;12.80;;;8.23;;
84293;SDS011;74463;51.182;3.210;2024-02-28T12:27:21;15.32;;;9.02;;
84293;SDS011;74463;51.182;3.210;2024-02-28T12:29:49;14.70;;;8.30;;
84293;SDS011;74463;51.182;3.210;2024-02-28T12:32:16;13.82;;;7.78;;
84293;SDS011;74463;51.182;3.210;2024-02-28T12:34:44;11.48;;;7.43;;
84293;SDS011;74463;51.182;3.210;2024-02-28T12:37:11;11.57;;;7.97;;
84293;SDS011;74463;51.182;3.210;2024-02-28T12:39:40;11.85;;;7.05;;
84293;SDS011;74463;51.182;3.210;2024-02-28T12:42:07;11.38;;;7.22;;
84293;SDS011;74463;51.182;3.210;2024-02-28T12:44:35;13.60;;;7.95;;
84293;SDS011;74463;51.182;3.210;2024-02-28T12:49:31;11.65;;;7.03;;
84293;SDS011;74463;51.182;3.210;2024-02-28T12:51:59;10.43;;;6.20;;
84293;SDS011;74463;51.182;3.210;2024-02-28T12:54:26;9.63;;;6.60;;
84293;SDS011;74463;51.182;3.210;2024-02-28T12:56:55;9.23;;;5.72;;
84293;SDS011;74463;51.182;3.210;2024-02-28T12:59:23;10.10;;;5.65;;
84293;SDS011;74463;51.182;3.210;2024-02-28T13:01:50;8.68;;;5.60;;
84293;SDS011;74463;51.182;3.210;2024-02-28T13:04:18;11.05;;;5.93;;
84293;SDS011;74463;51.182;3.210;2024-02-28T13:06:45;10.27;;;5.30;;
84293;SDS011;74463;51.182;3.210;2024-02-28T13:09:13;7.88;;;4.93;;
84293;SDS011;74463;51.182;3.210;2024-02-28T13:11:40;10.45;;;5.50;;
84293;SDS011;74463;51.182;3.210;2024-02-28T13:14:09;11.60;;;6.10;;
84293;SDS011;74463;51.182;3.210;2024-02-28T13:16:37;6.60;;;4.68;;
84293;SDS011;74463;51.182;3.210;2024-02-28T13:19:04;7.68;;;4.75;;
84293;SDS011;74463;51.182;3.210;2024-02-28T13:21:32;6.50;;;4.60;;
84293;SDS011;74463;51.182;3.210;2024-02-28T13:24:00;8.95;;;4.20;;
84293;SDS011;74463;51.182;3.210;2024-02-28T13:26:29;5.68;;;4.22;;
84293;SDS011;74463;51.182;3.210;2024-02-28T13:28:57;5.80;;;4.00;;
84293;SDS011;74463;51.182;3.210;2024-02-28T13:31:26;8.80;;;5.45;;
84293;SDS011;74463;51.182;3.210;2024-02-28T13:36:20;7.78;;;4.03;;
84293;SDS011;74463;51.182;3.210;2024-02-28T13:38:48;7.85;;;4.45;;
84293;SDS011;74463;51.182;3.210;2024-02-28T13:41:16;9.75;;;4.32;;
84293;SDS011;74463;51.182;3.210;2024-02-28T13:43:43;7.93;;;4.50;;
84293;SDS011;74463;51.182;3.210;2024-02-28T13:46:10;9.80;;;3.88;;
84293;SDS011;74463;51.182;3.210;2024-02-28T13:48:41;6.40;;;4.80;;
84293;SDS011;74463;51.182;3.210;2024-02-28T13:51:08;5.22;;;3.67;;
84293;SDS011;74463;51.182;3.210;2024-02-28T13:53:36;14.50;;;7.45;;
84293;SDS011;74463;51.182;3.210;2024-02-28T13:56:04;5.03;;;3.50;;
84293;SDS011;74463;51.182;3.210;2024-02-28T13:58:32;5.28;;;3.50;;
84293;SDS011;74463;51.182;3.210;2024-02-28T14:00:59;6.68;;;3.65;;
84293;SDS011;74463;51.182;3.210;2024-02-28T14:03:26;6.53;;;3.50;;
84293;SDS011;74463;51.182;3.210;2024-02-28T14:05:56;9.93;;;5.25;;
84293;SDS011;74463;51.182;3.210;2024-02-28T14:08:23;8.35;;;3.70;;
84293;SDS011;74463;51.182;3.210;2024-02-28T14:10:51;5.20;;;3.72;;
84293;SDS011;74463;51.182;3.210;2024-02-28T14:13:18;7.85;;;3.70;;
84293;SDS011;74463;51.182;3.210;2024-02-28T14:15:46;6.95;;;3.25;;
84293;SDS011;74463;51.182;3.210;2024-02-28T14:18:16;4.85;;;3.28;;
84293;SDS011;74463;51.182;3.210;2024-02-28T14:20:46;5.68;;;3.30;;
84293;SDS011;74463;51.182;3.210;2024-02-28T14:23:15;5.07;;;3.45;;
84293;SDS011;74463;51.182;3.210;2024-02-28T14:25:43;4.97;;;3.50;;
84293;SDS011;74463;51.182;3.210;2024-02-28T14:28:10;5.75;;;3.65;;
84293;SDS011;74463;51.182;3.210;2024-02-28T14:30:38;7.13;;;3.97;;
84293;SDS011;74463;51.182;3.210;2024-02-28T14:33:05;6.85;;;4.85;;
84293;SDS011;74463;51.182;3.210;2024-02-28T14:35:33;6.43;;;4.65;;
84293;SDS011;74463;51.182;3.210;2024-02-28T14:38:04;9.13;;;4.68;;
84293;SDS011;74463;51.182;3.210;2024-02-28T14:40:33;6.78;;;6.07;;
84293;SDS011;74463;51.182;3.210;2024-02-28T14:43:01;11.02;;;4.50;;
84293;SDS011;74463;51.182;3.210;2024-02-28T14:45:29;11.27;;;4.57;;
84293;SDS011;74463;51.182;3.210;2024-02-28T14:47:57;5.45;;;3.67;;
84293;SDS011;74463;51.182;3.210;2024-02-28T14:50:25;7.55;;;4.10;;
84293;SDS011;74463;51.182;3.210;2024-02-28T14:52:52;6.30;;;3.70;;
84293;SDS011;74463;51.182;3.210;2024-02-28T14:55:20;5.78;;;3.35;;
84293;SDS011;74463;51.182;3.210;2024-02-28T14:57:50;7.07;;;3.95;;
84293;SDS011;74463;51.182;3.210;2024-02-28T15:00:18;5.65;;;3.90;;